« Back
NWS Peachtree City, Ga » Text Product » ATL Terminal Aerodrome Forecast


Printer-friendly Version
Current Version              Previous Versions:   1  2  3  4  5  6  7  8  9  

Terminal Aerodrome Forecast

391
FTUS42 KFFC 251100
TAFATL
TAF
KATL 251130Z 2512/2618 33008KT P6SM SKC
     FM260200 31004KT P6SM FEW025
     FM261200 33008KT P6SM FEW250=



USA.gov is the U.S. government's official web portal to all federal, state and local government web resources and services.